createdAt,value
2023-01-06T00:00:38.074Z,11.80
2023-01-06T00:03:05.686Z,11.80
2023-01-06T00:05:32.888Z,11.70
2023-01-06T00:08:00.371Z,11.70
2023-01-06T00:10:27.784Z,12.60
2023-01-06T00:12:54.916Z,11.60
2023-01-06T00:15:22.263Z,11.60
2023-01-06T00:17:49.607Z,12.20
2023-01-06T00:20:16.851Z,11.50
2023-01-06T00:22:44.012Z,11.60
2023-01-06T00:25:11.524Z,11.50
2023-01-06T00:27:39.473Z,11.50
2023-01-06T00:30:07.233Z,11.40
2023-01-06T00:32:34.645Z,11.50
2023-01-06T00:35:01.927Z,11.40
2023-01-06T00:37:29.186Z,11.50
2023-01-06T00:39:56.344Z,11.40
2023-01-06T00:42:24.856Z,11.50
2023-01-06T00:44:52.212Z,11.50
2023-01-06T00:47:19.820Z,11.40
2023-01-06T00:49:47.322Z,11.40
2023-01-06T00:52:15.302Z,11.40
2023-01-06T00:54:43.447Z,11.50
2023-01-06T00:57:10.590Z,11.50
2023-01-06T00:59:37.788Z,11.50
2023-01-06T01:02:05.523Z,11.50
2023-01-06T01:04:32.712Z,10.90
2023-01-06T01:07:00.610Z,11.50
2023-01-06T01:09:29.490Z,11.50
2023-01-06T01:12:12.665Z,11.50
2023-01-06T01:14:44.302Z,11.40
2023-01-06T01:17:12.355Z,11.50
2023-01-06T01:19:39.819Z,11.50
2023-01-06T01:22:07.352Z,11.50
2023-01-06T01:24:34.679Z,10.90
2023-01-06T01:27:01.874Z,11.90
2023-01-06T01:29:29.034Z,11.50
2023-01-06T01:31:56.625Z,11.50
2023-01-06T01:34:23.784Z,11.50
2023-01-06T01:36:51.710Z,11.50
2023-01-06T01:39:20.203Z,11.50
2023-01-06T01:41:47.795Z,11.50
2023-01-06T01:44:33.380Z,11.50
2023-01-06T01:47:00.611Z,11.50
2023-01-06T01:49:28.711Z,11.50
2023-01-06T01:51:57.992Z,11.50
2023-01-06T01:54:27.291Z,11.50
2023-01-06T01:56:56.929Z,11.50
2023-01-06T01:59:25.846Z,11.40
2023-01-06T02:01:53.387Z,11.40
2023-01-06T02:04:21.216Z,11.50
2023-01-06T02:06:50.562Z,11.50
2023-01-06T02:09:20.495Z,11.40
2023-01-06T02:11:51.200Z,11.40
2023-01-06T02:14:20.625Z,11.40
2023-01-06T02:17:06.239Z,12.40
2023-01-06T02:19:51.420Z,11.30
2023-01-06T02:29:44.590Z,11.30
2023-01-06T02:32:24.458Z,11.30
2023-01-06T02:34:59.141Z,11.30
2023-01-06T02:37:29.702Z,11.30
2023-01-06T02:40:09.057Z,11.20
2023-01-06T02:42:36.102Z,11.20
2023-01-06T02:45:03.167Z,11.10
2023-01-06T02:47:37.664Z,11.10
2023-01-06T02:50:16.829Z,11.00
2023-01-06T02:52:53.434Z,10.90
2023-01-06T02:55:23.539Z,10.70
2023-01-06T02:57:53.111Z,10.60
2023-01-06T03:00:29.587Z,10.50
2023-01-06T03:02:58.873Z,10.40
2023-01-06T03:05:27.122Z,10.30
2023-01-06T03:07:55.267Z,9.90
2023-01-06T03:10:23.304Z,10.20
2023-01-06T03:12:56.324Z,10.20
2023-01-06T03:15:24.570Z,10.10
2023-01-06T03:17:51.932Z,10.10
2023-01-06T03:20:19.476Z,10.00
2023-01-06T03:22:46.626Z,9.90
2023-01-06T03:25:14.202Z,9.90
2023-01-06T03:27:41.409Z,9.80
2023-01-06T03:30:10.294Z,9.90
2023-01-06T03:32:44.315Z,10.90
2023-01-06T03:35:30.334Z,9.80
2023-01-06T03:38:05.742Z,9.70
2023-01-06T03:40:36.404Z,9.70
2023-01-06T03:43:12.449Z,9.70
2023-01-06T03:45:39.533Z,9.60
2023-01-06T03:48:20.931Z,9.60
2023-01-06T03:50:52.900Z,9.60
2023-01-06T03:53:26.791Z,9.50
2023-01-06T03:55:58.513Z,9.60
2023-01-06T03:58:26.423Z,9.50
2023-01-06T04:00:54.007Z,9.50
2023-01-06T04:03:23.385Z,9.50
2023-01-06T04:05:51.030Z,10.00
2023-01-06T04:08:18.129Z,9.40
2023-01-06T04:10:45.263Z,9.40
2023-01-06T04:13:12.366Z,9.40
2023-01-06T04:15:39.508Z,9.30
2023-01-06T04:18:06.692Z,9.30
2023-01-06T04:20:33.776Z,9.30
2023-01-06T04:23:00.976Z,9.30
2023-01-06T04:25:28.290Z,9.30
2023-01-06T04:27:55.602Z,9.30
2023-01-06T04:30:22.785Z,9.30
2023-01-06T04:32:49.878Z,9.30
2023-01-06T04:35:17.952Z,9.20
2023-01-06T04:37:45.104Z,9.60
2023-01-06T04:40:12.288Z,9.20
2023-01-06T04:42:57.941Z,9.20
2023-01-06T04:45:25.168Z,9.20
2023-01-06T04:47:52.359Z,9.10
2023-01-06T04:50:19.496Z,9.10
2023-01-06T04:52:46.585Z,9.10
2023-01-06T04:55:13.786Z,9.40
2023-01-06T04:57:40.983Z,9.00
2023-01-06T05:00:08.554Z,9.00
2023-01-06T05:02:35.674Z,9.00
2023-01-06T05:05:02.813Z,8.90
2023-01-06T05:07:29.900Z,8.90
2023-01-06T05:09:57.051Z,8.90
2023-01-06T05:12:24.196Z,8.90
2023-01-06T05:14:51.618Z,8.80
2023-01-06T05:17:18.745Z,8.90
2023-01-06T05:19:45.901Z,8.80
2023-01-06T05:22:13.078Z,8.90
2023-01-06T05:24:40.334Z,8.90
2023-01-06T05:27:08.005Z,7.70
2023-01-06T05:29:35.383Z,8.80
2023-01-06T05:32:02.728Z,8.70
2023-01-06T05:34:30.036Z,8.70
2023-01-06T05:36:57.457Z,8.70
2023-01-06T05:39:24.551Z,8.70
2023-01-06T05:41:51.718Z,8.70
2023-01-06T05:44:20.747Z,9.20
2023-01-06T05:46:48.198Z,8.60
2023-01-06T05:49:15.350Z,8.60
2023-01-06T05:51:42.998Z,8.60
2023-01-06T05:54:10.521Z,8.70
2023-01-06T05:56:37.657Z,8.60
2023-01-06T05:59:05.035Z,8.60
2023-01-06T06:01:32.365Z,8.60
2023-01-06T06:03:59.817Z,8.60
2023-01-06T06:06:27.907Z,8.60
2023-01-06T06:08:55.215Z,8.60
2023-01-06T06:11:22.597Z,8.60
2023-01-06T06:13:51.625Z,8.60
2023-01-06T06:16:19.635Z,9.60
2023-01-06T06:18:56.403Z,8.50
2023-01-06T06:21:24.892Z,8.50
2023-01-06T06:23:55.603Z,8.50
2023-01-06T06:26:23.234Z,8.50
2023-01-06T06:28:50.525Z,8.50
2023-01-06T06:31:20.359Z,8.50
2023-01-06T06:33:49.786Z,8.50
2023-01-06T06:36:17.240Z,8.60
2023-01-06T06:38:45.265Z,8.50
2023-01-06T06:41:12.993Z,8.40
2023-01-06T06:43:40.407Z,8.40
2023-01-06T06:46:07.916Z,8.40
2023-01-06T06:48:35.097Z,8.30
2023-01-06T06:51:02.160Z,8.30
2023-01-06T06:53:29.534Z,9.10
2023-01-06T06:55:57.029Z,8.30
2023-01-06T06:58:24.224Z,8.70
2023-01-06T07:00:51.563Z,9.60
2023-01-06T07:03:20.003Z,8.20
2023-01-06T07:05:48.301Z,8.70
2023-01-06T07:08:15.408Z,8.30
2023-01-06T07:10:42.551Z,8.20
2023-01-06T07:13:09.669Z,8.30
2023-01-06T07:15:36.786Z,8.20
2023-01-06T07:18:04.348Z,8.20
2023-01-06T07:20:35.199Z,8.20
2023-01-06T07:23:02.453Z,8.20
2023-01-06T07:25:29.615Z,8.10
2023-01-06T07:27:57.809Z,8.20
2023-01-06T07:30:25.654Z,8.00
2023-01-06T07:32:53.018Z,8.10
2023-01-06T07:35:20.338Z,8.00
2023-01-06T07:37:47.534Z,8.00
2023-01-06T07:40:14.712Z,8.00
2023-01-06T07:42:41.864Z,8.00
2023-01-06T07:45:09.673Z,8.10
2023-01-06T07:47:37.113Z,8.00
2023-01-06T07:50:05.172Z,8.10
2023-01-06T07:52:32.751Z,8.00
2023-01-06T07:54:59.970Z,7.90
2023-01-06T07:57:27.634Z,7.90
2023-01-06T07:59:54.963Z,7.80
2023-01-06T08:02:22.603Z,7.90
2023-01-06T08:04:49.992Z,7.80
2023-01-06T08:07:17.359Z,7.80
2023-01-06T08:09:44.540Z,7.80
2023-01-06T08:12:12.355Z,7.80
2023-01-06T08:14:39.674Z,7.90
2023-01-06T08:17:06.785Z,8.30
2023-01-06T08:19:33.906Z,7.90
2023-01-06T08:22:01.039Z,7.80
2023-01-06T08:24:31.861Z,7.90
2023-01-06T08:26:59.737Z,8.00
2023-01-06T08:29:27.089Z,8.00
2023-01-06T08:32:02.238Z,8.00
2023-01-06T08:34:36.571Z,8.00
2023-01-06T08:37:03.747Z,8.00
2023-01-06T08:39:30.845Z,8.00
2023-01-06T08:41:58.378Z,7.90
2023-01-06T08:44:26.000Z,8.00
2023-01-06T08:46:53.226Z,7.90
2023-01-06T08:49:20.487Z,8.00
2023-01-06T08:51:47.917Z,8.00
2023-01-06T08:54:15.039Z,8.10
2023-01-06T08:56:43.644Z,8.10
2023-01-06T08:59:13.748Z,8.10
2023-01-06T09:01:41.069Z,8.00
2023-01-06T09:04:09.048Z,8.00
2023-01-06T09:06:36.810Z,8.90
2023-01-06T09:09:05.326Z,8.10
2023-01-06T09:11:32.383Z,8.20
2023-01-06T09:13:59.587Z,8.20
2023-01-06T09:16:26.764Z,8.30
2023-01-06T09:18:53.956Z,8.20
2023-01-06T09:21:22.166Z,8.30
2023-01-06T09:23:49.487Z,8.40
2023-01-06T09:26:17.682Z,8.30
2023-01-06T09:28:45.007Z,8.40
2023-01-06T09:31:12.138Z,8.40
2023-01-06T09:33:39.471Z,8.40
2023-01-06T09:36:07.133Z,8.40
2023-01-06T09:38:34.366Z,8.50
2023-01-06T09:41:20.251Z,8.50
2023-01-06T09:43:52.760Z,8.50
2023-01-06T09:46:22.705Z,9.10
2023-01-06T09:49:03.099Z,9.30
2023-01-06T09:51:30.845Z,8.60
2023-01-06T09:54:07.848Z,8.70
2023-01-06T09:56:35.041Z,8.70
2023-01-06T09:59:02.135Z,8.70
2023-01-06T10:01:32.795Z,8.80
2023-01-06T10:04:00.893Z,8.90
2023-01-06T10:06:33.484Z,7.80
2023-01-06T10:09:09.559Z,8.90
2023-01-06T10:11:43.040Z,8.90
2023-01-06T10:14:16.424Z,8.90
2023-01-06T10:17:02.082Z,9.00
2023-01-06T10:19:37.997Z,9.00
2023-01-06T10:22:07.870Z,9.00
2023-01-06T10:24:49.352Z,9.00
2023-01-06T10:27:19.241Z,9.10
2023-01-06T10:29:47.329Z,9.10
2023-01-06T10:32:16.442Z,9.10
2023-01-06T10:34:46.350Z,9.00
2023-01-06T10:37:22.355Z,9.10
2023-01-06T10:39:52.675Z,9.20
2023-01-06T10:42:51.523Z,9.20
2023-01-06T10:45:18.772Z,9.30
2023-01-06T10:47:46.018Z,9.30
2023-01-06T10:50:14.321Z,9.50
2023-01-06T10:52:41.700Z,9.10
2023-01-06T10:55:17.354Z,9.60
2023-01-06T10:57:44.566Z,9.70
2023-01-06T11:00:13.918Z,9.70
2023-01-06T11:02:48.683Z,9.70
2023-01-06T11:05:16.954Z,9.70
2023-01-06T11:07:56.035Z,9.80
2023-01-06T11:10:26.654Z,9.80
2023-01-06T11:12:54.684Z,9.80
2023-01-06T11:15:25.616Z,9.90
2023-01-06T11:17:52.723Z,9.90
2023-01-06T11:20:19.869Z,10.00
2023-01-06T11:22:48.467Z,10.00
2023-01-06T11:25:21.503Z,10.10
2023-01-06T11:27:50.054Z,10.00
2023-01-06T11:30:21.402Z,10.10
2023-01-06T11:32:48.556Z,9.40
2023-01-06T11:35:24.555Z,10.20
2023-01-06T11:37:57.645Z,10.20
2023-01-06T11:40:27.355Z,10.30
2023-01-06T11:43:00.546Z,11.20
2023-01-06T11:45:47.004Z,11.10
2023-01-06T11:48:16.379Z,10.30
2023-01-06T11:50:50.521Z,10.40
2023-01-06T11:53:19.355Z,10.30
2023-01-06T11:55:59.780Z,10.40
2023-01-06T11:58:32.639Z,10.30
2023-01-06T12:01:02.550Z,10.30
2023-01-06T12:03:43.607Z,9.70
2023-01-06T12:06:10.745Z,10.30
2023-01-06T12:08:40.635Z,10.30
2023-01-06T12:11:19.254Z,10.40
2023-01-06T12:14:08.244Z,10.30
2023-01-06T12:16:35.214Z,10.30
2023-01-06T12:19:02.698Z,10.40
2023-01-06T12:21:31.560Z,10.40
2023-01-06T12:24:02.631Z,10.40
2023-01-06T12:26:30.438Z,10.50
2023-01-06T12:28:58.485Z,10.50
2023-01-06T12:31:30.915Z,11.40
2023-01-06T12:34:13.318Z,10.40
2023-01-06T12:36:55.417Z,10.40
2023-01-06T12:39:30.552Z,10.40
2023-01-06T12:42:07.132Z,11.50
2023-01-06T12:44:38.934Z,10.40
2023-01-06T12:47:25.853Z,10.40
2023-01-06T12:49:56.370Z,10.40
2023-01-06T12:52:34.899Z,10.50
2023-01-06T12:55:02.774Z,10.50
2023-01-06T12:57:36.121Z,10.60
2023-01-06T13:00:09.562Z,10.50
2023-01-06T13:02:39.939Z,10.60
2023-01-06T13:05:25.543Z,10.60
2023-01-06T13:08:16.110Z,10.60
2023-01-06T13:10:47.272Z,10.60
2023-01-06T13:13:17.332Z,10.60
2023-01-06T13:15:45.380Z,10.60
2023-01-06T13:18:12.595Z,10.70
2023-01-06T13:20:44.573Z,10.70
2023-01-06T13:23:17.921Z,10.80
2023-01-06T13:25:46.001Z,10.80
2023-01-06T13:28:19.037Z,10.80
2023-01-06T13:31:12.690Z,10.80
2023-01-06T13:33:39.814Z,10.40
2023-01-06T13:36:31.425Z,10.80
2023-01-06T13:39:00.091Z,10.80
2023-01-06T13:41:30.919Z,10.80
2023-01-06T13:43:58.636Z,10.80
2023-01-06T13:46:27.065Z,10.80
2023-01-06T13:49:00.659Z,10.90
2023-01-06T13:51:32.465Z,10.80
2023-01-06T13:54:01.116Z,10.90
2023-01-06T13:56:36.264Z,10.80
2023-01-06T13:59:20.197Z,10.90
2023-01-06T14:01:48.550Z,10.90
2023-01-06T14:04:27.801Z,11.30
2023-01-06T14:06:55.138Z,10.90
2023-01-06T14:09:22.413Z,10.90
2023-01-06T14:11:50.011Z,10.90
2023-01-06T14:14:25.421Z,10.90
2023-01-06T14:16:54.470Z,10.80
2023-01-06T14:19:27.071Z,11.10
2023-01-06T14:21:55.963Z,10.90
2023-01-06T14:24:27.010Z,10.90
2023-01-06T14:27:02.983Z,10.90
2023-01-06T14:29:42.358Z,10.80
2023-01-06T14:32:16.032Z,10.90
2023-01-06T14:34:54.412Z,11.00
2023-01-06T14:37:24.535Z,11.00
2023-01-06T14:39:54.269Z,11.70
2023-01-06T14:42:28.422Z,11.00
2023-01-06T14:45:05.837Z,11.00
2023-01-06T14:47:46.198Z,11.50
2023-01-06T14:50:19.932Z,11.00
2023-01-06T14:53:03.445Z,11.10
2023-01-06T14:55:32.976Z,11.10
2023-01-06T14:58:00.124Z,11.10
2023-01-06T15:00:30.003Z,11.10
2023-01-06T15:03:02.439Z,11.20
2023-01-06T15:05:31.539Z,11.20
2023-01-06T15:07:58.629Z,11.20
2023-01-06T15:10:29.404Z,11.20
2023-01-06T15:12:57.528Z,11.20
2023-01-06T15:15:29.706Z,11.40
2023-01-06T15:17:57.934Z,11.20
2023-01-06T15:20:35.400Z,11.20
2023-01-06T15:23:02.925Z,11.20
2023-01-06T15:25:31.534Z,11.20
2023-01-06T15:27:58.826Z,11.20
2023-01-06T15:30:27.276Z,11.10
2023-01-06T15:32:54.964Z,11.10
2023-01-06T15:35:24.370Z,11.10
2023-01-06T15:37:59.989Z,11.10
2023-01-06T15:40:27.765Z,11.10
2023-01-06T15:42:55.181Z,11.20
2023-01-06T15:45:28.131Z,11.40
2023-01-06T15:47:56.512Z,11.00
2023-01-06T15:50:28.332Z,11.10
2023-01-06T15:52:57.373Z,11.00
2023-01-06T15:55:26.963Z,11.00
2023-01-06T15:57:57.289Z,11.00
2023-01-06T16:00:26.684Z,11.00
2023-01-06T16:02:54.146Z,11.00
2023-01-06T16:05:40.420Z,10.90
2023-01-06T16:08:26.479Z,10.90
2023-01-06T16:11:12.254Z,10.80
2023-01-06T16:13:40.189Z,10.80
2023-01-06T16:16:29.974Z,10.80
2023-01-06T16:18:57.336Z,12.20
2023-01-06T16:21:24.408Z,10.80
2023-01-06T16:23:58.881Z,10.80
2023-01-06T16:26:28.073Z,10.80
2023-01-06T16:28:56.662Z,10.80
2023-01-06T16:31:31.413Z,10.80
2023-01-06T16:34:14.518Z,10.70
2023-01-06T16:36:41.727Z,10.70
2023-01-06T16:39:09.148Z,10.70
2023-01-06T16:41:36.445Z,10.70
2023-01-06T16:44:04.315Z,10.70
2023-01-06T16:46:31.549Z,10.70
2023-01-06T16:49:06.403Z,10.70
2023-01-06T17:08:44.200Z,10.60
2023-01-06T17:11:13.654Z,10.60
2023-01-06T17:13:45.991Z,10.60
2023-01-06T17:16:14.828Z,10.60
2023-01-06T17:18:53.084Z,10.60
2023-01-06T17:21:32.942Z,10.70
2023-01-06T17:24:23.642Z,10.70
2023-01-06T17:27:02.719Z,10.70
2023-01-06T17:29:33.207Z,10.80
2023-01-06T17:32:02.148Z,10.80
2023-01-06T17:34:33.806Z,10.80
2023-01-06T17:37:11.834Z,11.00
2023-01-06T17:39:40.141Z,10.90
2023-01-06T17:42:07.244Z,11.00
2023-01-06T17:44:35.822Z,12.00
2023-01-06T17:47:06.091Z,11.00
2023-01-06T17:49:34.721Z,11.00
2023-01-06T17:52:15.760Z,11.10
2023-01-06T17:55:06.920Z,11.10
2023-01-06T17:57:34.735Z,11.00
2023-01-06T18:00:02.547Z,11.20
2023-01-06T18:02:39.393Z,11.20
2023-01-06T18:05:24.567Z,11.20
2023-01-06T18:08:12.347Z,11.20
2023-01-06T18:10:50.295Z,10.80
2023-01-06T18:13:24.576Z,11.30
2023-01-06T18:15:58.695Z,11.30
2023-01-06T18:18:52.268Z,11.30
2023-01-06T18:29:12.079Z,11.40
2023-01-06T18:31:40.105Z,11.40
2023-01-06T18:34:36.630Z,11.30
2023-01-06T18:37:03.850Z,11.60
2023-01-06T18:39:36.653Z,11.40
2023-01-06T18:42:16.016Z,11.40
2023-01-06T18:44:43.310Z,11.40
2023-01-06T18:47:14.659Z,11.40
2023-01-06T18:49:42.188Z,11.40
2023-01-06T18:52:48.168Z,11.50
2023-01-06T18:55:18.020Z,11.50
2023-01-06T18:57:46.059Z,10.70
2023-01-06T19:00:29.603Z,12.00
2023-01-06T19:03:01.419Z,11.60
2023-01-06T19:05:28.707Z,11.60
2023-01-06T19:07:57.022Z,11.60
2023-01-06T19:10:26.731Z,11.50
2023-01-06T19:12:58.085Z,11.60
2023-01-06T19:15:25.900Z,11.60
2023-01-06T19:17:54.809Z,11.60
2023-01-06T19:20:22.092Z,12.40
2023-01-06T19:22:50.003Z,11.60
2023-01-06T19:25:26.252Z,11.70
2023-01-06T19:27:56.911Z,11.50
2023-01-06T19:30:30.409Z,11.60
2023-01-06T19:33:16.439Z,11.60
2023-01-06T19:35:43.705Z,11.60
2023-01-06T19:38:27.814Z,11.60
2023-01-06T19:40:56.896Z,11.60
2023-01-06T19:43:28.954Z,11.60
2023-01-06T19:45:56.690Z,11.70
2023-01-06T19:48:27.968Z,11.70
2023-01-06T19:51:14.227Z,11.70
2023-01-06T19:53:43.197Z,11.70
2023-01-06T19:56:18.242Z,11.70
2023-01-06T19:58:52.300Z,11.70
2023-01-06T20:01:20.075Z,11.80
2023-01-06T20:03:47.894Z,11.80
2023-01-06T20:06:16.483Z,11.80
2023-01-06T20:08:44.027Z,11.80
2023-01-06T20:11:12.083Z,11.80
2023-01-06T20:13:39.308Z,11.80
2023-01-06T20:16:06.814Z,11.80
2023-01-06T20:18:34.051Z,11.80
2023-01-06T20:21:01.347Z,11.80
2023-01-06T20:23:28.543Z,11.80
2023-01-06T20:25:55.800Z,11.80
2023-01-06T20:28:24.163Z,11.80
2023-01-06T20:30:51.644Z,11.90
2023-01-06T20:33:18.785Z,11.80
2023-01-06T20:35:45.955Z,11.80
2023-01-06T20:38:13.070Z,10.60
2023-01-06T20:40:40.378Z,11.80
2023-01-06T20:43:07.498Z,11.80
2023-01-06T20:45:34.786Z,11.80
2023-01-06T20:48:02.413Z,11.80
2023-01-06T20:50:29.619Z,11.90
2023-01-06T20:52:56.738Z,11.80
2023-01-06T20:55:23.836Z,11.90
2023-01-06T20:57:50.974Z,12.90
2023-01-06T21:00:18.394Z,11.80
2023-01-06T21:02:45.546Z,11.40
2023-01-06T21:05:12.991Z,11.90
2023-01-06T21:07:40.272Z,11.90
2023-01-06T21:10:07.658Z,11.90
2023-01-06T21:12:34.946Z,11.90
2023-01-06T21:15:02.203Z,12.00
2023-01-06T21:17:29.778Z,11.90
2023-01-06T21:19:57.053Z,11.90
2023-01-06T21:22:24.171Z,11.90
2023-01-06T21:24:51.416Z,11.90
2023-01-06T21:27:18.847Z,11.90
2023-01-06T21:29:46.076Z,11.90
2023-01-06T21:32:13.326Z,11.90
2023-01-06T21:34:40.563Z,12.00
2023-01-06T21:37:07.668Z,11.90
2023-01-06T21:39:34.907Z,11.90
2023-01-06T21:42:20.419Z,12.00
2023-01-06T21:44:48.914Z,12.00
2023-01-06T21:47:16.011Z,11.90
2023-01-06T21:49:45.229Z,11.90
2023-01-06T21:52:14.846Z,11.90
2023-01-06T21:54:42.950Z,11.70
2023-01-06T21:57:10.793Z,11.90
2023-01-06T21:59:38.268Z,11.90
2023-01-06T22:02:05.586Z,10.50
2023-01-06T22:04:32.851Z,11.80
2023-01-06T22:07:01.044Z,11.80
2023-01-06T22:09:29.529Z,11.80
2023-01-06T22:11:57.139Z,11.80
2023-01-06T22:14:24.836Z,11.80
2023-01-06T22:16:52.581Z,11.80
2023-01-06T22:19:19.674Z,11.80
2023-01-06T22:21:47.151Z,11.80
2023-01-06T22:24:15.637Z,11.80
2023-01-06T22:26:42.965Z,12.80
2023-01-06T22:29:10.420Z,11.80
2023-01-06T22:31:37.781Z,11.90
2023-01-06T22:34:06.085Z,12.00
2023-01-06T22:36:33.263Z,12.00
2023-01-06T22:39:00.386Z,11.90
2023-01-06T22:41:27.467Z,11.90
2023-01-06T22:43:54.704Z,11.90
2023-01-06T22:46:22.111Z,11.90
2023-01-06T22:48:49.380Z,12.00
2023-01-06T22:51:17.674Z,12.00
2023-01-06T22:53:44.919Z,11.90
2023-01-06T22:56:12.387Z,11.90
2023-01-06T22:58:40.668Z,11.90
2023-01-06T23:01:08.701Z,12.30
2023-01-06T23:03:36.246Z,11.90
2023-01-06T23:06:11.128Z,11.80
2023-01-06T23:08:48.041Z,11.90
2023-01-06T23:11:22.961Z,11.90
2023-01-06T23:13:54.368Z,12.00
2023-01-06T23:16:22.738Z,12.00
2023-01-06T23:18:50.092Z,12.00
2023-01-06T23:21:20.587Z,11.90
2023-01-06T23:23:50.754Z,12.00
2023-01-06T23:26:22.827Z,11.20
2023-01-06T23:28:51.410Z,12.00
2023-01-06T23:31:23.195Z,12.00
2023-01-06T23:33:51.763Z,12.10
2023-01-06T23:36:19.656Z,12.00
2023-01-06T23:38:46.783Z,12.10
2023-01-06T23:41:21.244Z,12.10
2023-01-06T23:43:48.854Z,12.10
2023-01-06T23:46:20.330Z,12.00
2023-01-06T23:48:48.072Z,12.10
2023-01-06T23:51:15.696Z,12.10
2023-01-06T23:53:42.938Z,12.10
2023-01-06T23:56:12.141Z,12.20
2023-01-06T23:58:39.979Z,12.10
